sensor_id;sensor_type;location;lat;lon;timestamp;temperature;humidity
22202;DHT22;11266;51.522;6.302;2023-07-31T00:00:42;17.10;99.90
22202;DHT22;11266;51.522;6.302;2023-07-31T00:01:28;17.10;99.90
22202;DHT22;11266;51.522;6.302;2023-07-31T00:02:13;17.00;99.90
22202;DHT22;11266;51.522;6.302;2023-07-31T00:02:59;17.10;99.90
22202;DHT22;11266;51.522;6.302;2023-07-31T00:03:46;17.10;99.90
22202;DHT22;11266;51.522;6.302;2023-07-31T00:04:32;17.20;99.90
22202;DHT22;11266;51.522;6.302;2023-07-31T00:05:17;17.20;99.90
22202;DHT22;11266;51.522;6.302;2023-07-31T00:06:03;17.20;99.90
22202;DHT22;11266;51.522;6.302;2023-07-31T00:06:48;17.30;99.90
22202;DHT22;11266;51.522;6.302;2023-07-31T00:07:34;17.20;99.90
22202;DHT22;11266;51.522;6.302;2023-07-31T00:08:20;17.20;99.90
22202;DHT22;11266;51.522;6.302;2023-07-31T00:09:05;17.20;99.90
22202;DHT22;11266;51.522;6.302;2023-07-31T00:09:51;17.20;99.90
22202;DHT22;11266;51.522;6.302;2023-07-31T00:10:36;17.10;99.90
22202;DHT22;11266;51.522;6.302;2023-07-31T00:11:22;17.00;99.90
22202;DHT22;11266;51.522;6.302;2023-07-31T00:12:08;17.00;99.90
22202;DHT22;11266;51.522;6.302;2023-07-31T00:12:53;17.10;99.90
22202;DHT22;11266;51.522;6.302;2023-07-31T00:13:39;17.10;99.90
22202;DHT22;11266;51.522;6.302;2023-07-31T00:14:24;17.20;99.90
22202;DHT22;11266;51.522;6.302;2023-07-31T00:15:10;17.10;99.90
22202;DHT22;11266;51.522;6.302;2023-07-31T00:15:56;17.20;99.90
22202;DHT22;11266;51.522;6.302;2023-07-31T00:16:42;17.20;99.90
22202;DHT22;11266;51.522;6.302;2023-07-31T00:17:27;17.20;99.90
22202;DHT22;11266;51.522;6.302;2023-07-31T00:18:13;17.30;99.90
22202;DHT22;11266;51.522;6.302;2023-07-31T00:18:59;17.30;99.90
22202;DHT22;11266;51.522;6.302;2023-07-31T00:19:45;17.20;99.90
22202;DHT22;11266;51.522;6.302;2023-07-31T00:20:31;17.20;99.90
22202;DHT22;11266;51.522;6.302;2023-07-31T00:21:17;17.20;99.90
22202;DHT22;11266;51.522;6.302;2023-07-31T00:22:02;17.30;99.90
22202;DHT22;11266;51.522;6.302;2023-07-31T00:22:48;17.20;99.90
22202;DHT22;11266;51.522;6.302;2023-07-31T00:23:34;17.20;99.90
22202;DHT22;11266;51.522;6.302;2023-07-31T00:24:19;17.20;99.90
22202;DHT22;11266;51.522;6.302;2023-07-31T00:25:05;17.10;99.90
22202;DHT22;11266;51.522;6.302;2023-07-31T00:25:51;17.10;99.90
22202;DHT22;11266;51.522;6.302;2023-07-31T00:26:37;17.00;99.90
22202;DHT22;11266;51.522;6.302;2023-07-31T00:27:23;17.00;99.90
22202;DHT22;11266;51.522;6.302;2023-07-31T00:28:08;17.00;99.90
22202;DHT22;11266;51.522;6.302;2023-07-31T00:28:54;17.10;99.90
22202;DHT22;11266;51.522;6.302;2023-07-31T00:29:39;17.10;99.90
22202;DHT22;11266;51.522;6.302;2023-07-31T00:30:25;17.10;99.90
22202;DHT22;11266;51.522;6.302;2023-07-31T00:31:12;17.10;99.90
22202;DHT22;11266;51.522;6.302;2023-07-31T00:31:57;17.10;99.90
22202;DHT22;11266;51.522;6.302;2023-07-31T00:32:43;17.00;99.90
22202;DHT22;11266;51.522;6.302;2023-07-31T00:33:30;17.00;99.90
22202;DHT22;11266;51.522;6.302;2023-07-31T00:34:16;17.10;99.90
22202;DHT22;11266;51.522;6.302;2023-07-31T00:35:02;17.20;99.90
22202;DHT22;11266;51.522;6.302;2023-07-31T00:35:48;17.10;99.90
22202;DHT22;11266;51.522;6.302;2023-07-31T00:36:34;17.10;99.90
22202;DHT22;11266;51.522;6.302;2023-07-31T00:37:19;17.20;99.90
22202;DHT22;11266;51.522;6.302;2023-07-31T00:38:05;17.20;99.90
22202;DHT22;11266;51.522;6.302;2023-07-31T00:38:50;17.30;99.90
22202;DHT22;11266;51.522;6.302;2023-07-31T00:39:36;17.20;99.90
22202;DHT22;11266;51.522;6.302;2023-07-31T00:40:22;17.30;99.90
22202;DHT22;11266;51.522;6.302;2023-07-31T00:41:07;17.30;99.90
22202;DHT22;11266;51.522;6.302;2023-07-31T00:41:53;17.20;99.90
22202;DHT22;11266;51.522;6.302;2023-07-31T00:42:38;17.20;99.90
22202;DHT22;11266;51.522;6.302;2023-07-31T00:43:24;17.10;99.90
22202;DHT22;11266;51.522;6.302;2023-07-31T00:44:10;17.10;99.90
22202;DHT22;11266;51.522;6.302;2023-07-31T00:44:56;17.20;99.90
22202;DHT22;11266;51.522;6.302;2023-07-31T00:45:41;17.20;99.90
22202;DHT22;11266;51.522;6.302;2023-07-31T00:46:27;17.20;99.90
22202;DHT22;11266;51.522;6.302;2023-07-31T00:47:12;17.20;99.90
22202;DHT22;11266;51.522;6.302;2023-07-31T00:47:58;17.20;99.90
22202;DHT22;11266;51.522;6.302;2023-07-31T00:48:44;17.20;99.90
22202;DHT22;11266;51.522;6.302;2023-07-31T00:49:30;17.10;99.90
22202;DHT22;11266;51.522;6.302;2023-07-31T00:50:16;17.10;99.90
22202;DHT22;11266;51.522;6.302;2023-07-31T00:51:02;17.20;99.90
22202;DHT22;11266;51.522;6.302;2023-07-31T00:51:47;17.20;99.90
22202;DHT22;11266;51.522;6.302;2023-07-31T00:52:33;17.10;99.90
22202;DHT22;11266;51.522;6.302;2023-07-31T00:53:18;17.10;99.90
22202;DHT22;11266;51.522;6.302;2023-07-31T00:54:06;17.10;99.90
22202;DHT22;11266;51.522;6.302;2023-07-31T00:54:52;17.00;99.90
22202;DHT22;11266;51.522;6.302;2023-07-31T00:55:37;17.10;99.90
22202;DHT22;11266;51.522;6.302;2023-07-31T00:56:24;17.00;99.90
22202;DHT22;11266;51.522;6.302;2023-07-31T00:57:10;17.00;99.90
22202;DHT22;11266;51.522;6.302;2023-07-31T00:57:56;16.90;99.90
22202;DHT22;11266;51.522;6.302;2023-07-31T00:58:42;16.90;99.90
22202;DHT22;11266;51.522;6.302;2023-07-31T00:59:27;16.90;99.90
22202;DHT22;11266;51.522;6.302;2023-07-31T01:00:13;16.90;99.90
22202;DHT22;11266;51.522;6.302;2023-07-31T01:00:58;16.90;99.90
22202;DHT22;11266;51.522;6.302;2023-07-31T01:01:45;16.90;99.90
22202;DHT22;11266;51.522;6.302;2023-07-31T01:02:30;16.90;99.90
22202;DHT22;11266;51.522;6.302;2023-07-31T01:03:17;16.90;99.90
22202;DHT22;11266;51.522;6.302;2023-07-31T01:04:02;16.80;99.90
22202;DHT22;11266;51.522;6.302;2023-07-31T01:04:48;16.90;99.90
22202;DHT22;11266;51.522;6.302;2023-07-31T01:06:40;16.80;99.90
22202;DHT22;11266;51.522;6.302;2023-07-31T01:07:45;16.80;99.90
22202;DHT22;11266;51.522;6.302;2023-07-31T01:08:44;16.80;99.90
22202;DHT22;11266;51.522;6.302;2023-07-31T01:10:37;16.90;99.90
22202;DHT22;11266;51.522;6.302;2023-07-31T01:10:56;16.90;99.90
22202;DHT22;11266;51.522;6.302;2023-07-31T01:11:47;17.00;99.90
22202;DHT22;11266;51.522;6.302;2023-07-31T01:12:34;17.00;99.90
22202;DHT22;11266;51.522;6.302;2023-07-31T01:13:21;17.00;99.90
22202;DHT22;11266;51.522;6.302;2023-07-31T01:14:07;17.00;99.90
22202;DHT22;11266;51.522;6.302;2023-07-31T01:15:12;17.00;99.90
22202;DHT22;11266;51.522;6.302;2023-07-31T01:16:00;16.90;99.90
22202;DHT22;11266;51.522;6.302;2023-07-31T01:16:45;17.00;99.90
22202;DHT22;11266;51.522;6.302;2023-07-31T01:17:31;17.00;99.90
22202;DHT22;11266;51.522;6.302;2023-07-31T01:18:16;17.10;99.90
22202;DHT22;11266;51.522;6.302;2023-07-31T01:19:02;17.10;99.90
22202;DHT22;11266;51.522;6.302;2023-07-31T01:19:49;17.00;99.90
22202;DHT22;11266;51.522;6.302;2023-07-31T01:20:35;17.00;99.90
22202;DHT22;11266;51.522;6.302;2023-07-31T01:24:14;16.80;99.90
22202;DHT22;11266;51.522;6.302;2023-07-31T01:25:20;16.70;99.90
22202;DHT22;11266;51.522;6.302;2023-07-31T01:26:15;16.70;99.90
22202;DHT22;11266;51.522;6.302;2023-07-31T01:27:12;16.70;99.90
22202;DHT22;11266;51.522;6.302;2023-07-31T01:28:05;16.90;99.90
22202;DHT22;11266;51.522;6.302;2023-07-31T01:29:01;16.90;99.90
22202;DHT22;11266;51.522;6.302;2023-07-31T01:29:51;16.90;99.90
22202;DHT22;11266;51.522;6.302;2023-07-31T01:30:45;17.00;99.90
22202;DHT22;11266;51.522;6.302;2023-07-31T01:31:33;17.00;99.90
22202;DHT22;11266;51.522;6.302;2023-07-31T01:32:19;16.90;99.90
22202;DHT22;11266;51.522;6.302;2023-07-31T01:33:05;16.90;99.90
22202;DHT22;11266;51.522;6.302;2023-07-31T01:33:54;16.80;99.90
22202;DHT22;11266;51.522;6.302;2023-07-31T01:34:41;16.90;99.90
22202;DHT22;11266;51.522;6.302;2023-07-31T01:35:27;17.00;99.90
22202;DHT22;11266;51.522;6.302;2023-07-31T01:36:13;16.90;99.90
22202;DHT22;11266;51.522;6.302;2023-07-31T01:36:59;16.90;99.90
22202;DHT22;11266;51.522;6.302;2023-07-31T01:37:45;16.90;99.90
22202;DHT22;11266;51.522;6.302;2023-07-31T01:38:31;16.90;99.90
22202;DHT22;11266;51.522;6.302;2023-07-31T01:39:16;16.90;99.90
22202;DHT22;11266;51.522;6.302;2023-07-31T01:40:03;17.00;99.90
22202;DHT22;11266;51.522;6.302;2023-07-31T01:40:53;17.00;99.90
22202;DHT22;11266;51.522;6.302;2023-07-31T01:41:38;17.00;99.90
22202;DHT22;11266;51.522;6.302;2023-07-31T01:42:24;17.10;99.90
22202;DHT22;11266;51.522;6.302;2023-07-31T01:43:10;17.00;99.90
22202;DHT22;11266;51.522;6.302;2023-07-31T01:43:55;17.00;99.90
22202;DHT22;11266;51.522;6.302;2023-07-31T01:44:41;17.00;99.90
22202;DHT22;11266;51.522;6.302;2023-07-31T01:45:26;17.00;99.90
22202;DHT22;11266;51.522;6.302;2023-07-31T01:46:12;17.10;99.90
22202;DHT22;11266;51.522;6.302;2023-07-31T01:46:58;17.10;99.90
22202;DHT22;11266;51.522;6.302;2023-07-31T01:47:45;17.10;99.90
22202;DHT22;11266;51.522;6.302;2023-07-31T01:48:31;17.10;99.90
22202;DHT22;11266;51.522;6.302;2023-07-31T01:49:21;17.10;99.90
22202;DHT22;11266;51.522;6.302;2023-07-31T01:50:06;17.10;99.90
22202;DHT22;11266;51.522;6.302;2023-07-31T01:50:52;17.00;99.90
22202;DHT22;11266;51.522;6.302;2023-07-31T01:51:38;17.00;99.90
22202;DHT22;11266;51.522;6.302;2023-07-31T01:52:23;17.00;99.90
22202;DHT22;11266;51.522;6.302;2023-07-31T01:53:09;16.90;99.90
22202;DHT22;11266;51.522;6.302;2023-07-31T01:53:54;17.00;99.90
22202;DHT22;11266;51.522;6.302;2023-07-31T01:54:40;16.90;99.90
22202;DHT22;11266;51.522;6.302;2023-07-31T01:55:25;16.80;99.90
22202;DHT22;11266;51.522;6.302;2023-07-31T01:56:11;16.80;99.90
22202;DHT22;11266;51.522;6.302;2023-07-31T01:56:57;16.80;99.90
22202;DHT22;11266;51.522;6.302;2023-07-31T01:57:42;16.80;99.90
22202;DHT22;11266;51.522;6.302;2023-07-31T01:58:28;16.90;99.90
22202;DHT22;11266;51.522;6.302;2023-07-31T01:59:13;16.90;99.90
22202;DHT22;11266;51.522;6.302;2023-07-31T01:59:59;16.90;99.90
22202;DHT22;11266;51.522;6.302;2023-07-31T02:00:45;16.90;99.90
22202;DHT22;11266;51.522;6.302;2023-07-31T02:01:31;16.90;99.90
22202;DHT22;11266;51.522;6.302;2023-07-31T02:02:17;17.00;99.90
22202;DHT22;11266;51.522;6.302;2023-07-31T02:03:02;17.00;99.90
22202;DHT22;11266;51.522;6.302;2023-07-31T02:03:48;16.90;99.90
22202;DHT22;11266;51.522;6.302;2023-07-31T02:04:33;16.90;99.90
22202;DHT22;11266;51.522;6.302;2023-07-31T02:05:19;17.00;99.90
22202;DHT22;11266;51.522;6.302;2023-07-31T02:06:05;17.10;99.90
22202;DHT22;11266;51.522;6.302;2023-07-31T02:06:50;17.10;99.90
22202;DHT22;11266;51.522;6.302;2023-07-31T02:07:36;17.00;99.90
22202;DHT22;11266;51.522;6.302;2023-07-31T02:08:22;16.90;99.90
22202;DHT22;11266;51.522;6.302;2023-07-31T02:09:07;16.90;99.90
22202;DHT22;11266;51.522;6.302;2023-07-31T02:09:53;16.90;99.90
22202;DHT22;11266;51.522;6.302;2023-07-31T02:10:39;16.90;99.90
22202;DHT22;11266;51.522;6.302;2023-07-31T02:11:24;17.00;99.90
22202;DHT22;11266;51.522;6.302;2023-07-31T02:12:10;16.90;99.90
22202;DHT22;11266;51.522;6.302;2023-07-31T02:12:56;16.90;99.90
22202;DHT22;11266;51.522;6.302;2023-07-31T02:13:43;16.90;99.90
22202;DHT22;11266;51.522;6.302;2023-07-31T02:14:28;17.00;99.90
22202;DHT22;11266;51.522;6.302;2023-07-31T02:15:14;16.90;99.90
22202;DHT22;11266;51.522;6.302;2023-07-31T02:15:59;16.90;99.90
22202;DHT22;11266;51.522;6.302;2023-07-31T02:16:45;16.90;99.90
22202;DHT22;11266;51.522;6.302;2023-07-31T02:17:30;16.90;99.90
22202;DHT22;11266;51.522;6.302;2023-07-31T02:18:16;17.00;99.90
22202;DHT22;11266;51.522;6.302;2023-07-31T02:19:02;17.00;99.90
22202;DHT22;11266;51.522;6.302;2023-07-31T02:19:48;16.90;99.90
22202;DHT22;11266;51.522;6.302;2023-07-31T02:20:34;16.90;99.90
22202;DHT22;11266;51.522;6.302;2023-07-31T02:21:20;17.00;99.90
22202;DHT22;11266;51.522;6.302;2023-07-31T02:22:06;17.00;99.90
22202;DHT22;11266;51.522;6.302;2023-07-31T02:22:51;17.00;99.90
22202;DHT22;11266;51.522;6.302;2023-07-31T02:23:37;16.90;99.90
22202;DHT22;11266;51.522;6.302;2023-07-31T02:24:23;16.90;99.90
22202;DHT22;11266;51.522;6.302;2023-07-31T02:25:09;16.90;99.90
22202;DHT22;11266;51.522;6.302;2023-07-31T02:25:55;16.90;99.90
22202;DHT22;11266;51.522;6.302;2023-07-31T02:26:40;16.90;99.90
22202;DHT22;11266;51.522;6.302;2023-07-31T02:27:27;16.90;99.90
22202;DHT22;11266;51.522;6.302;2023-07-31T02:28:13;16.90;99.90
22202;DHT22;11266;51.522;6.302;2023-07-31T02:28:58;17.00;99.90
22202;DHT22;11266;51.522;6.302;2023-07-31T02:29:44;16.90;99.90
22202;DHT22;11266;51.522;6.302;2023-07-31T02:30:29;16.90;99.90
22202;DHT22;11266;51.522;6.302;2023-07-31T02:31:15;16.90;99.90
22202;DHT22;11266;51.522;6.302;2023-07-31T02:32:01;16.90;99.90
22202;DHT22;11266;51.522;6.302;2023-07-31T02:32:46;16.90;99.90
22202;DHT22;11266;51.522;6.302;2023-07-31T02:33:32;17.00;99.90
22202;DHT22;11266;51.522;6.302;2023-07-31T02:34:17;17.10;99.90
22202;DHT22;11266;51.522;6.302;2023-07-31T02:35:03;17.20;99.90
22202;DHT22;11266;51.522;6.302;2023-07-31T02:35:49;17.10;99.90
22202;DHT22;11266;51.522;6.302;2023-07-31T02:36:34;17.10;99.90
22202;DHT22;11266;51.522;6.302;2023-07-31T02:37:20;17.00;99.90
22202;DHT22;11266;51.522;6.302;2023-07-31T02:38:06;16.90;99.90
22202;DHT22;11266;51.522;6.302;2023-07-31T02:38:51;16.90;99.90
22202;DHT22;11266;51.522;6.302;2023-07-31T02:39:37;16.80;99.90
22202;DHT22;11266;51.522;6.302;2023-07-31T02:40:22;16.90;99.90
22202;DHT22;11266;51.522;6.302;2023-07-31T02:41:08;16.80;99.90
22202;DHT22;11266;51.522;6.302;2023-07-31T02:41:54;16.80;99.90
22202;DHT22;11266;51.522;6.302;2023-07-31T02:42:40;16.80;99.90
22202;DHT22;11266;51.522;6.302;2023-07-31T02:43:25;16.80;99.90
22202;DHT22;11266;51.522;6.302;2023-07-31T02:44:11;16.80;99.90
22202;DHT22;11266;51.522;6.302;2023-07-31T02:44:59;16.80;99.90
22202;DHT22;11266;51.522;6.302;2023-07-31T02:45:45;16.70;99.90
22202;DHT22;11266;51.522;6.302;2023-07-31T02:46:30;16.70;99.90
22202;DHT22;11266;51.522;6.302;2023-07-31T02:47:16;16.80;99.90
22202;DHT22;11266;51.522;6.302;2023-07-31T02:48:02;16.90;99.90
22202;DHT22;11266;51.522;6.302;2023-07-31T02:48:48;16.80;99.90
22202;DHT22;11266;51.522;6.302;2023-07-31T02:49:33;16.80;99.90
22202;DHT22;11266;51.522;6.302;2023-07-31T02:50:19;16.80;99.90
22202;DHT22;11266;51.522;6.302;2023-07-31T02:51:05;16.80;99.90
22202;DHT22;11266;51.522;6.302;2023-07-31T02:51:50;16.80;99.90
22202;DHT22;11266;51.522;6.302;2023-07-31T02:52:36;16.80;99.90
22202;DHT22;11266;51.522;6.302;2023-07-31T02:53:21;16.80;99.90
22202;DHT22;11266;51.522;6.302;2023-07-31T02:54:08;16.70;99.90
22202;DHT22;11266;51.522;6.302;2023-07-31T02:54:53;16.80;99.90
22202;DHT22;11266;51.522;6.302;2023-07-31T02:55:40;16.90;99.90
22202;DHT22;11266;51.522;6.302;2023-07-31T02:56:26;16.90;99.90
22202;DHT22;11266;51.522;6.302;2023-07-31T02:57:11;16.90;99.90
22202;DHT22;11266;51.522;6.302;2023-07-31T02:57:57;16.90;99.90
22202;DHT22;11266;51.522;6.302;2023-07-31T02:58:43;16.90;99.90
22202;DHT22;11266;51.522;6.302;2023-07-31T02:59:29;16.90;99.90
22202;DHT22;11266;51.522;6.302;2023-07-31T03:00:14;16.90;99.90
22202;DHT22;11266;51.522;6.302;2023-07-31T03:01:00;16.80;99.90
22202;DHT22;11266;51.522;6.302;2023-07-31T03:01:46;16.90;99.90
22202;DHT22;11266;51.522;6.302;2023-07-31T03:02:31;16.90;99.90
22202;DHT22;11266;51.522;6.302;2023-07-31T03:03:17;16.80;99.90
22202;DHT22;11266;51.522;6.302;2023-07-31T03:04:03;16.90;99.90
22202;DHT22;11266;51.522;6.302;2023-07-31T03:04:48;16.80;99.90
22202;DHT22;11266;51.522;6.302;2023-07-31T03:05:34;16.80;99.90
22202;DHT22;11266;51.522;6.302;2023-07-31T03:06:19;16.80;99.90
22202;DHT22;11266;51.522;6.302;2023-07-31T03:07:05;16.80;99.90
22202;DHT22;11266;51.522;6.302;2023-07-31T03:07:51;16.80;99.90
22202;DHT22;11266;51.522;6.302;2023-07-31T03:08:37;16.80;99.90
22202;DHT22;11266;51.522;6.302;2023-07-31T03:09:22;16.90;99.90
22202;DHT22;11266;51.522;6.302;2023-07-31T03:10:08;16.80;99.90
22202;DHT22;11266;51.522;6.302;2023-07-31T03:10:54;16.80;99.90
22202;DHT22;11266;51.522;6.302;2023-07-31T03:11:39;16.80;99.90
22202;DHT22;11266;51.522;6.302;2023-07-31T03:12:25;16.70;99.90
22202;DHT22;11266;51.522;6.302;2023-07-31T03:13:10;16.70;99.90
22202;DHT22;11266;51.522;6.302;2023-07-31T03:13:56;16.70;99.90
22202;DHT22;11266;51.522;6.302;2023-07-31T03:14:42;16.60;99.90
22202;DHT22;11266;51.522;6.302;2023-07-31T03:15:27;16.70;99.90
22202;DHT22;11266;51.522;6.302;2023-07-31T03:16:13;16.70;99.90
22202;DHT22;11266;51.522;6.302;2023-07-31T03:16:59;16.60;99.90
22202;DHT22;11266;51.522;6.302;2023-07-31T03:17:44;16.60;99.90
22202;DHT22;11266;51.522;6.302;2023-07-31T03:18:30;16.60;99.90
22202;DHT22;11266;51.522;6.302;2023-07-31T03:19:16;16.70;99.90
22202;DHT22;11266;51.522;6.302;2023-07-31T03:20:01;16.70;99.90
22202;DHT22;11266;51.522;6.302;2023-07-31T03:20:47;16.70;99.90
22202;DHT22;11266;51.522;6.302;2023-07-31T03:21:32;16.80;99.90
22202;DHT22;11266;51.522;6.302;2023-07-31T03:22:18;16.90;99.90
22202;DHT22;11266;51.522;6.302;2023-07-31T03:23:03;16.90;99.90
22202;DHT22;11266;51.522;6.302;2023-07-31T03:23:49;16.90;99.90
22202;DHT22;11266;51.522;6.302;2023-07-31T03:24:34;16.90;99.90
22202;DHT22;11266;51.522;6.302;2023-07-31T03:25:20;16.80;99.90
22202;DHT22;11266;51.522;6.302;2023-07-31T03:26:07;16.70;99.90
22202;DHT22;11266;51.522;6.302;2023-07-31T03:26:53;16.70;99.90
22202;DHT22;11266;51.522;6.302;2023-07-31T03:27:38;16.70;99.90
22202;DHT22;11266;51.522;6.302;2023-07-31T03:28:24;16.70;99.90
22202;DHT22;11266;51.522;6.302;2023-07-31T03:29:09;16.80;99.90
22202;DHT22;11266;51.522;6.302;2023-07-31T03:29:55;16.80;99.90
22202;DHT22;11266;51.522;6.302;2023-07-31T03:30:41;16.80;99.90
22202;DHT22;11266;51.522;6.302;2023-07-31T03:31:26;16.80;99.90
22202;DHT22;11266;51.522;6.302;2023-07-31T03:32:12;16.80;99.90
22202;DHT22;11266;51.522;6.302;2023-07-31T03:32:57;16.80;99.90
22202;DHT22;11266;51.522;6.302;2023-07-31T03:33:43;16.80;99.90
22202;DHT22;11266;51.522;6.302;2023-07-31T03:34:29;16.80;99.90
22202;DHT22;11266;51.522;6.302;2023-07-31T03:35:14;16.70;99.90
22202;DHT22;11266;51.522;6.302;2023-07-31T03:36:00;16.80;99.90
22202;DHT22;11266;51.522;6.302;2023-07-31T03:36:45;16.70;99.90
22202;DHT22;11266;51.522;6.302;2023-07-31T03:37:31;16.70;99.90
22202;DHT22;11266;51.522;6.302;2023-07-31T03:38:17;16.70;99.90
22202;DHT22;11266;51.522;6.302;2023-07-31T03:39:02;16.70;99.90
22202;DHT22;11266;51.522;6.302;2023-07-31T03:39:48;16.70;99.90
22202;DHT22;11266;51.522;6.302;2023-07-31T03:40:34;16.80;99.90
22202;DHT22;11266;51.522;6.302;2023-07-31T03:41:19;16.80;99.90
22202;DHT22;11266;51.522;6.302;2023-07-31T03:42:05;16.80;99.90
22202;DHT22;11266;51.522;6.302;2023-07-31T03:42:51;16.80;99.90
22202;DHT22;11266;51.522;6.302;2023-07-31T03:43:37;16.80;99.90
22202;DHT22;11266;51.522;6.302;2023-07-31T03:44:22;16.70;99.90
22202;DHT22;11266;51.522;6.302;2023-07-31T03:45:08;16.80;99.90
22202;DHT22;11266;51.522;6.302;2023-07-31T03:45:54;16.70;99.90
22202;DHT22;11266;51.522;6.302;2023-07-31T03:46:39;16.90;99.90
22202;DHT22;11266;51.522;6.302;2023-07-31T03:47:25;16.80;99.90
22202;DHT22;11266;51.522;6.302;2023-07-31T03:48:11;16.80;99.90
22202;DHT22;11266;51.522;6.302;2023-07-31T03:48:57;16.80;99.90
22202;DHT22;11266;51.522;6.302;2023-07-31T03:49:42;16.80;99.90
22202;DHT22;11266;51.522;6.302;2023-07-31T03:50:28;16.90;99.90
22202;DHT22;11266;51.522;6.302;2023-07-31T03:51:13;16.80;99.90
22202;DHT22;11266;51.522;6.302;2023-07-31T03:51:59;16.90;99.90
22202;DHT22;11266;51.522;6.302;2023-07-31T03:52:44;16.80;99.90
22202;DHT22;11266;51.522;6.302;2023-07-31T03:53:30;16.80;99.90
22202;DHT22;11266;51.522;6.302;2023-07-31T03:54:15;16.80;99.90
22202;DHT22;11266;51.522;6.302;2023-07-31T03:55:01;16.80;99.90
22202;DHT22;11266;51.522;6.302;2023-07-31T03:55:47;16.70;99.90
22202;DHT22;11266;51.522;6.302;2023-07-31T03:56:32;16.70;99.90
22202;DHT22;11266;51.522;6.302;2023-07-31T03:57:18;16.80;99.90
22202;DHT22;11266;51.522;6.302;2023-07-31T03:58:03;16.80;99.90
22202;DHT22;11266;51.522;6.302;2023-07-31T03:58:49;16.90;99.90
22202;DHT22;11266;51.522;6.302;2023-07-31T03:59:34;16.90;99.90
22202;DHT22;11266;51.522;6.302;2023-07-31T04:00:20;16.90;99.90
22202;DHT22;11266;51.522;6.302;2023-07-31T04:01:07;16.90;99.90
22202;DHT22;11266;51.522;6.302;2023-07-31T04:01:53;17.00;99.90
22202;DHT22;11266;51.522;6.302;2023-07-31T04:02:38;17.00;99.90
22202;DHT22;11266;51.522;6.302;2023-07-31T04:03:24;17.00;99.90
22202;DHT22;11266;51.522;6.302;2023-07-31T04:04:09;17.00;99.90
22202;DHT22;11266;51.522;6.302;2023-07-31T04:04:55;16.90;99.90
22202;DHT22;11266;51.522;6.302;2023-07-31T04:05:41;16.90;99.90
22202;DHT22;11266;51.522;6.302;2023-07-31T04:06:26;16.90;99.90
22202;DHT22;11266;51.522;6.302;2023-07-31T04:07:12;16.90;99.90
22202;DHT22;11266;51.522;6.302;2023-07-31T04:07:57;16.90;99.90
22202;DHT22;11266;51.522;6.302;2023-07-31T04:08:43;16.90;99.90
22202;DHT22;11266;51.522;6.302;2023-07-31T04:09:29;16.90;99.90
22202;DHT22;11266;51.522;6.302;2023-07-31T04:10:14;16.90;99.90
22202;DHT22;11266;51.522;6.302;2023-07-31T04:11:00;16.90;99.90
22202;DHT22;11266;51.522;6.302;2023-07-31T04:11:46;16.80;99.90
22202;DHT22;11266;51.522;6.302;2023-07-31T04:12:31;16.80;99.90
22202;DHT22;11266;51.522;6.302;2023-07-31T04:13:17;16.80;99.90
22202;DHT22;11266;51.522;6.302;2023-07-31T04:14:02;16.80;99.90
22202;DHT22;11266;51.522;6.302;2023-07-31T04:14:51;16.80;99.90
22202;DHT22;11266;51.522;6.302;2023-07-31T04:15:40;16.80;99.90
22202;DHT22;11266;51.522;6.302;2023-07-31T04:16:25;16.70;99.90
22202;DHT22;11266;51.522;6.302;2023-07-31T04:17:11;16.70;99.90
22202;DHT22;11266;51.522;6.302;2023-07-31T04:17:56;16.80;99.90
22202;DHT22;11266;51.522;6.302;2023-07-31T04:18:42;16.70;99.90
22202;DHT22;11266;51.522;6.302;2023-07-31T04:19:28;16.70;99.90
22202;DHT22;11266;51.522;6.302;2023-07-31T04:20:13;16.80;99.90
22202;DHT22;11266;51.522;6.302;2023-07-31T04:20:59;16.80;99.90
22202;DHT22;11266;51.522;6.302;2023-07-31T04:21:46;16.70;99.90
22202;DHT22;11266;51.522;6.302;2023-07-31T04:22:32;16.70;99.90
22202;DHT22;11266;51.522;6.302;2023-07-31T04:23:17;16.70;99.90
22202;DHT22;11266;51.522;6.302;2023-07-31T04:24:03;16.70;99.90
22202;DHT22;11266;51.522;6.302;2023-07-31T04:24:49;16.70;99.90
22202;DHT22;11266;51.522;6.302;2023-07-31T04:25:34;16.70;99.90
22202;DHT22;11266;51.522;6.302;2023-07-31T04:26:20;16.70;99.90
22202;DHT22;11266;51.522;6.302;2023-07-31T04:27:06;16.80;99.90
22202;DHT22;11266;51.522;6.302;2023-07-31T04:27:51;16.80;99.90
22202;DHT22;11266;51.522;6.302;2023-07-31T04:28:37;16.80;99.90
22202;DHT22;11266;51.522;6.302;2023-07-31T04:29:22;16.70;99.90
22202;DHT22;11266;51.522;6.302;2023-07-31T04:30:09;16.70;99.90
22202;DHT22;11266;51.522;6.302;2023-07-31T04:30:55;16.80;99.90
22202;DHT22;11266;51.522;6.302;2023-07-31T04:31:40;16.80;99.90
22202;DHT22;11266;51.522;6.302;2023-07-31T04:32:26;16.80;99.90
22202;DHT22;11266;51.522;6.302;2023-07-31T04:33:12;16.80;99.90
22202;DHT22;11266;51.522;6.302;2023-07-31T04:33:57;16.80;99.90
22202;DHT22;11266;51.522;6.302;2023-07-31T04:34:43;16.70;99.90
22202;DHT22;11266;51.522;6.302;2023-07-31T04:35:29;16.80;99.90
22202;DHT22;11266;51.522;6.302;2023-07-31T04:36:14;16.80;99.90
22202;DHT22;11266;51.522;6.302;2023-07-31T04:37:00;16.80;99.90
22202;DHT22;11266;51.522;6.302;2023-07-31T04:37:46;16.70;99.90
22202;DHT22;11266;51.522;6.302;2023-07-31T04:38:34;16.70;99.90
22202;DHT22;11266;51.522;6.302;2023-07-31T04:39:19;16.70;99.90
22202;DHT22;11266;51.522;6.302;2023-07-31T04:40:05;16.70;99.90
22202;DHT22;11266;51.522;6.302;2023-07-31T04:40:51;16.80;99.90
22202;DHT22;11266;51.522;6.302;2023-07-31T04:41:36;16.80;99.90
22202;DHT22;11266;51.522;6.302;2023-07-31T04:42:22;16.80;99.90
22202;DHT22;11266;51.522;6.302;2023-07-31T04:43:07;16.80;99.90
22202;DHT22;11266;51.522;6.302;2023-07-31T04:43:53;16.80;99.90
22202;DHT22;11266;51.522;6.302;2023-07-31T04:44:39;16.80;99.90
22202;DHT22;11266;51.522;6.302;2023-07-31T04:45:24;16.80;99.90
22202;DHT22;11266;51.522;6.302;2023-07-31T04:46:10;16.90;99.90
22202;DHT22;11266;51.522;6.302;2023-07-31T04:46:55;16.90;99.90
22202;DHT22;11266;51.522;6.302;2023-07-31T04:47:41;16.90;99.90
22202;DHT22;11266;51.522;6.302;2023-07-31T04:48:26;16.90;99.90
22202;DHT22;11266;51.522;6.302;2023-07-31T04:49:12;16.90;99.90
22202;DHT22;11266;51.522;6.302;2023-07-31T04:49:58;16.90;99.90
22202;DHT22;11266;51.522;6.302;2023-07-31T04:50:43;16.90;99.90
22202;DHT22;11266;51.522;6.302;2023-07-31T04:51:29;16.90;99.90
22202;DHT22;11266;51.522;6.302;2023-07-31T04:52:14;16.90;99.90
22202;DHT22;11266;51.522;6.302;2023-07-31T04:53:00;16.90;99.90
22202;DHT22;11266;51.522;6.302;2023-07-31T04:53:46;16.90;99.90
22202;DHT22;11266;51.522;6.302;2023-07-31T04:54:31;16.90;99.90
22202;DHT22;11266;51.522;6.302;2023-07-31T04:55:17;16.90;99.90
22202;DHT22;11266;51.522;6.302;2023-07-31T04:56:03;16.90;99.90